createdAt,value
2022-10-08T00:00:25.478Z,101608.54
2022-10-08T00:02:55.231Z,101612.17
2022-10-08T00:05:24.440Z,101605.60
2022-10-08T00:07:53.967Z,101615.77
2022-10-08T00:10:23.182Z,101609.34
2022-10-08T00:12:52.408Z,101600.34
2022-10-08T00:15:21.641Z,101606.00
2022-10-08T00:17:51.381Z,101607.04
2022-10-08T00:20:22.059Z,101610.27
2022-10-08T00:22:51.402Z,101605.03
2022-10-08T00:25:20.783Z,101602.55
2022-10-08T00:27:51.179Z,101604.16
2022-10-08T00:30:20.773Z,101607.94
2022-10-08T00:32:51.035Z,101598.71
2022-10-08T00:35:20.268Z,101603.03
2022-10-08T00:37:49.642Z,101599.23
2022-10-08T00:40:19.023Z,101601.39
2022-10-08T00:42:49.062Z,101600.05
2022-10-08T00:45:18.614Z,101596.77
2022-10-08T00:47:49.729Z,101604.84
2022-10-08T00:50:25.173Z,101598.11
2022-10-08T00:53:00.000Z,101611.60
2022-10-08T00:55:30.478Z,101616.45
2022-10-08T00:58:03.420Z,101617.24
2022-10-08T01:00:33.468Z,101619.06
2022-10-08T01:03:03.880Z,101611.12
2022-10-08T01:05:39.429Z,101607.29
2022-10-08T01:08:17.600Z,101602.95
2022-10-08T01:11:01.879Z,101597.84
2022-10-08T01:13:46.256Z,101594.80
2022-10-08T01:16:39.111Z,101591.80
2022-10-08T01:19:17.804Z,101591.78
2022-10-08T01:21:56.112Z,101587.72
2022-10-08T01:24:58.456Z,101586.84
2022-10-08T01:27:43.243Z,101590.08
2022-10-08T01:30:14.857Z,101592.49
2022-10-08T01:32:48.698Z,101589.80
2022-10-08T01:35:27.467Z,101604.60
2022-10-08T01:37:59.198Z,101606.48
2022-10-08T01:40:30.822Z,101604.34
2022-10-08T01:43:01.738Z,101609.20
2022-10-08T01:45:34.205Z,101606.05
2022-10-08T01:48:09.169Z,101599.51
2022-10-08T01:50:44.444Z,101593.11
2022-10-08T01:53:15.805Z,101601.91
2022-10-08T01:55:53.680Z,101605.91
2022-10-08T01:58:27.867Z,101602.44
2022-10-08T02:01:00.196Z,101601.03
2022-10-08T02:03:29.583Z,101596.13
2022-10-08T02:06:00.449Z,101605.00
2022-10-08T02:08:29.912Z,101602.30
2022-10-08T02:10:59.159Z,101599.80
2022-10-08T02:13:28.548Z,101609.44
2022-10-08T02:16:11.307Z,101616.65
2022-10-08T02:18:44.493Z,101618.81
2022-10-08T02:21:25.934Z,101620.97
2022-10-08T02:23:58.459Z,101615.53
2022-10-08T02:26:30.855Z,101615.00
2022-10-08T02:29:06.277Z,101620.39
2022-10-08T02:31:41.709Z,101616.35
2022-10-08T02:34:14.016Z,101626.54
2022-10-08T02:36:46.297Z,101623.63
2022-10-08T02:39:17.116Z,101629.02
2022-10-08T02:41:49.587Z,101625.78
2022-10-08T02:44:37.000Z,101626.08
2022-10-08T02:47:08.823Z,101624.45
2022-10-08T02:49:41.234Z,101624.71
2022-10-08T02:52:10.983Z,101614.95
2022-10-08T02:54:42.544Z,101613.58
2022-10-08T02:57:18.489Z,101611.91
2022-10-08T02:59:48.807Z,101615.33
2022-10-08T03:02:20.983Z,101610.48
2022-10-08T03:04:52.966Z,101607.98
2022-10-08T03:07:24.216Z,101617.95
2022-10-08T03:09:55.119Z,101615.48
2022-10-08T03:12:25.462Z,101620.56
2022-10-08T03:14:54.836Z,101616.44
2022-10-08T03:17:38.104Z,101621.62
2022-10-08T03:20:08.467Z,101614.00
2022-10-08T03:22:38.179Z,101624.21
2022-10-08T03:25:07.694Z,101624.66
2022-10-08T03:27:37.091Z,101632.38
2022-10-08T03:30:07.621Z,101636.61
2022-10-08T03:32:36.984Z,101634.92
2022-10-08T03:35:06.674Z,101636.52
2022-10-08T03:37:36.307Z,101636.99
2022-10-08T03:40:06.332Z,101637.50
2022-10-08T03:42:35.701Z,101641.73
2022-10-08T03:45:05.658Z,101645.52
2022-10-08T03:47:34.927Z,101644.33
2022-10-08T03:50:04.496Z,101652.15
2022-10-08T03:52:33.831Z,101656.63
2022-10-08T03:55:03.123Z,101664.63
2022-10-08T03:57:32.590Z,101667.89
2022-10-08T04:00:01.813Z,101667.02
2022-10-08T04:02:35.855Z,101679.12
2022-10-08T04:05:05.491Z,101676.14
2022-10-08T04:07:34.909Z,101675.80
2022-10-08T04:10:04.379Z,101678.55
2022-10-08T04:12:33.842Z,101681.53
2022-10-08T04:15:03.066Z,101680.72
2022-10-08T04:17:32.362Z,101683.59
2022-10-08T04:20:01.633Z,101681.15
2022-10-08T04:22:31.192Z,101681.43
2022-10-08T04:25:00.478Z,101679.52
2022-10-08T04:27:29.821Z,101677.02
2022-10-08T04:29:59.211Z,101679.42
2022-10-08T04:32:30.885Z,101683.73
2022-10-08T04:35:00.151Z,101692.59
2022-10-08T04:37:29.666Z,101693.69
2022-10-08T04:39:59.033Z,101686.50
2022-10-08T04:42:28.263Z,101696.38
2022-10-08T04:44:57.647Z,101694.69
2022-10-08T04:47:26.872Z,101700.31
2022-10-08T04:49:56.366Z,101702.47
2022-10-08T04:52:25.861Z,101701.72
2022-10-08T04:54:55.261Z,101712.66
2022-10-08T04:57:24.556Z,101710.50
2022-10-08T05:00:17.075Z,101711.60
2022-10-08T05:02:24.982Z,101719.11
2022-10-08T05:04:54.432Z,101721.30
2022-10-08T05:07:24.469Z,101723.24
2022-10-08T05:09:53.980Z,101727.84
2022-10-08T05:12:23.232Z,101723.17
2022-10-08T05:14:52.749Z,101732.31
2022-10-08T05:17:21.993Z,101732.77
2022-10-08T05:19:51.213Z,101739.49
2022-10-08T05:22:20.639Z,101739.45
2022-10-08T05:24:50.072Z,101745.02
2022-10-08T05:27:19.429Z,101743.67
2022-10-08T05:29:48.678Z,101742.50
2022-10-08T05:32:18.174Z,101741.97
2022-10-08T05:34:47.508Z,101743.27
2022-10-08T05:37:16.825Z,101758.03
2022-10-08T05:39:46.081Z,101758.48
2022-10-08T05:42:15.454Z,101757.39
2022-10-08T05:44:45.571Z,101761.42
2022-10-08T05:47:14.955Z,101768.14
2022-10-08T05:49:44.362Z,101774.98
2022-10-08T05:52:13.807Z,101771.93
2022-10-08T05:54:43.162Z,101780.00
2022-10-08T05:57:12.725Z,101787.30
2022-10-08T05:59:42.099Z,101785.00
2022-10-08T06:02:12.830Z,101784.44
2022-10-08T06:04:42.238Z,101785.42
2022-10-08T06:07:11.725Z,101798.12
2022-10-08T06:09:40.964Z,101799.39
2022-10-08T06:12:10.382Z,101806.72
2022-10-08T06:14:39.666Z,101808.06
2022-10-08T06:17:09.145Z,101814.81
2022-10-08T06:19:38.434Z,101821.54
2022-10-08T06:22:07.965Z,101827.70
2022-10-08T06:24:37.207Z,101833.76
2022-10-08T06:27:06.465Z,101847.00
2022-10-08T06:29:35.665Z,101850.55
2022-10-08T06:32:05.022Z,101853.06
2022-10-08T06:34:34.471Z,101853.87
2022-10-08T06:37:03.957Z,101862.59
2022-10-08T06:39:33.353Z,101864.27
2022-10-08T06:42:02.594Z,101882.11
2022-10-08T06:44:33.603Z,101883.85
2022-10-08T06:47:03.052Z,101886.30
2022-10-08T06:49:32.411Z,101891.23
2022-10-08T06:52:01.802Z,101892.87
2022-10-08T06:54:31.027Z,101893.44
2022-10-08T06:57:00.466Z,101905.63
2022-10-08T06:59:29.897Z,101905.73
2022-10-08T07:01:59.317Z,101908.16
2022-10-08T07:04:28.599Z,101916.97
2022-10-08T07:06:57.928Z,101926.57
2022-10-08T07:09:27.137Z,101925.98
2022-10-08T07:11:56.515Z,101927.94
2022-10-08T07:14:25.870Z,101933.78
2022-10-08T07:16:55.308Z,101938.22
2022-10-08T07:19:25.224Z,101948.28
2022-10-08T07:21:57.889Z,101944.77
2022-10-08T07:24:25.486Z,101944.65
2022-10-08T07:26:54.952Z,101946.12
2022-10-08T07:29:25.877Z,101947.81
2022-10-08T07:31:55.551Z,101949.51
2022-10-08T07:34:24.929Z,101944.77
2022-10-08T07:36:54.341Z,101950.58
2022-10-08T07:39:23.649Z,101956.91
2022-10-08T07:41:52.949Z,101958.16
2022-10-08T07:44:22.204Z,101960.36
2022-10-08T07:46:53.766Z,101968.34
2022-10-08T07:49:22.969Z,101978.59
2022-10-08T07:51:52.248Z,101984.25
2022-10-08T07:54:21.543Z,101980.12
2022-10-08T07:56:50.915Z,101983.73
2022-10-08T07:59:20.141Z,101985.77
2022-10-08T08:01:49.618Z,102002.87
2022-10-08T08:04:18.884Z,101999.24
2022-10-08T08:06:48.931Z,102005.00
2022-10-08T08:09:18.635Z,102012.92
2022-10-08T08:11:49.515Z,102008.51
2022-10-08T08:14:19.770Z,102016.20
2022-10-08T08:16:49.349Z,102021.84
2022-10-08T08:19:18.780Z,102017.42
2022-10-08T08:21:48.012Z,102020.41
2022-10-08T08:24:17.474Z,102031.97
2022-10-08T08:26:46.971Z,102040.56
2022-10-08T08:29:19.917Z,102038.73
2022-10-08T08:31:50.169Z,102042.13
2022-10-08T08:34:22.632Z,102045.16
2022-10-08T08:36:54.945Z,102051.67
2022-10-08T08:39:27.681Z,102055.73
2022-10-08T08:42:18.360Z,102057.18
2022-10-08T08:44:53.097Z,102065.23
2022-10-08T08:47:34.052Z,102075.01
2022-10-08T08:50:21.337Z,102073.14
2022-10-08T08:52:50.729Z,102074.25
2022-10-08T08:55:23.376Z,102082.22
2022-10-08T08:58:01.516Z,102081.05
2022-10-08T09:00:33.979Z,102086.84
2022-10-08T09:03:21.291Z,102092.42
2022-10-08T09:05:53.934Z,102092.42
2022-10-08T09:08:45.664Z,102101.84
2022-10-08T09:11:17.307Z,102092.59
2022-10-08T09:13:51.966Z,102097.17
2022-10-08T09:16:21.286Z,102092.97
2022-10-08T09:18:52.417Z,102101.52
2022-10-08T09:21:22.386Z,102114.33
2022-10-08T09:23:51.628Z,102114.33
2022-10-08T09:26:23.517Z,102124.80
2022-10-08T09:28:58.060Z,102116.56
2022-10-08T09:31:39.318Z,102118.80
2022-10-08T09:34:15.826Z,102130.17
2022-10-08T09:36:47.707Z,102135.53
2022-10-08T09:39:25.508Z,102137.11
2022-10-08T09:42:14.022Z,102144.98
2022-10-08T09:44:51.594Z,102149.22
2022-10-08T09:47:23.066Z,102154.67
2022-10-08T09:50:07.704Z,102151.03
2022-10-08T09:52:37.938Z,102149.14
2022-10-08T09:55:13.542Z,102154.67
2022-10-08T09:57:45.022Z,102159.84
2022-10-08T10:00:31.506Z,102163.05
2022-10-08T10:03:01.961Z,102166.48
2022-10-08T10:05:34.286Z,102164.70
2022-10-08T10:08:03.935Z,102176.94
2022-10-08T10:10:38.870Z,102171.66
2022-10-08T10:13:13.317Z,102169.55
2022-10-08T10:15:51.590Z,102171.41
2022-10-08T10:18:23.234Z,102181.06
2022-10-08T10:20:57.643Z,102186.55
2022-10-08T10:23:41.759Z,102182.97
2022-10-08T10:26:14.359Z,102185.78
2022-10-08T10:28:55.924Z,102186.52
2022-10-08T10:31:43.615Z,102191.29
2022-10-08T10:34:21.791Z,102202.75
2022-10-08T10:36:53.018Z,102202.75
2022-10-08T10:39:33.609Z,102204.15
2022-10-08T10:42:22.451Z,102204.15
2022-10-08T10:45:04.488Z,102200.42
2022-10-08T10:47:33.877Z,102199.16
2022-10-08T10:50:03.625Z,102205.43
2022-10-08T10:52:38.802Z,102208.22
2022-10-08T10:55:22.986Z,102205.70
2022-10-08T10:58:15.982Z,102209.09
2022-10-08T11:07:34.437Z,102205.63
2022-10-08T11:10:21.770Z,102213.23
2022-10-08T11:12:56.567Z,102238.55
2022-10-08T11:15:40.677Z,102213.34
2022-10-08T11:18:27.928Z,102217.78
2022-10-08T11:21:21.174Z,102217.78
2022-10-08T11:24:28.606Z,102215.17
2022-10-08T11:27:03.740Z,102216.47
2022-10-08T11:29:55.343Z,102223.28
2022-10-08T11:32:26.897Z,102218.91
2022-10-08T11:35:05.208Z,102223.30
2022-10-08T11:37:37.585Z,102221.13
2022-10-08T11:40:30.951Z,102218.48
2022-10-08T11:43:27.712Z,102219.08
2022-10-08T11:46:22.722Z,102219.08
2022-10-08T11:48:52.113Z,102211.31
2022-10-08T11:51:24.758Z,102210.85
2022-10-08T11:54:13.176Z,102225.93
2022-10-08T11:56:53.233Z,102217.86
2022-10-08T11:59:31.563Z,102212.23
2022-10-08T12:02:25.410Z,102216.31
2022-10-08T12:04:57.056Z,102231.58
2022-10-08T12:07:34.177Z,102226.67
2022-10-08T12:10:09.614Z,102232.22
2022-10-08T12:12:55.942Z,102235.52
2022-10-08T12:15:28.949Z,102233.20
2022-10-08T12:18:00.919Z,102232.04
2022-10-08T12:20:33.738Z,102232.22
2022-10-08T12:23:10.820Z,102239.08
2022-10-08T12:25:49.424Z,102227.84
2022-10-08T12:28:24.989Z,102236.25
2022-10-08T12:30:56.231Z,102236.02
2022-10-08T12:33:26.757Z,102234.20
2022-10-08T12:36:10.839Z,102234.88
2022-10-08T12:38:52.480Z,102242.05
2022-10-08T12:41:26.675Z,102240.24
2022-10-08T12:44:15.889Z,102244.16
2022-10-08T12:47:05.280Z,102241.65
2022-10-08T12:49:49.646Z,102247.11
2022-10-08T12:52:20.579Z,102240.06
2022-10-08T12:54:57.972Z,102244.63
2022-10-08T12:57:35.658Z,102247.87
2022-10-08T13:00:14.249Z,102243.66
2022-10-08T13:02:43.798Z,102252.77
2022-10-08T13:05:31.403Z,102244.23
2022-10-08T13:08:03.872Z,102242.27
2022-10-08T13:10:32.395Z,102242.16
2022-10-08T13:13:06.547Z,102238.81
2022-10-08T13:15:36.367Z,102245.08
2022-10-08T13:18:17.058Z,102241.86
2022-10-08T13:21:00.292Z,102253.79
2022-10-08T13:23:41.661Z,102254.55
2022-10-08T13:26:39.276Z,102260.53
2022-10-08T13:29:26.749Z,102249.92
2022-10-08T13:32:08.794Z,102260.80
2022-10-08T13:34:43.090Z,102262.69
2022-10-08T13:37:14.728Z,102257.26
2022-10-08T13:40:01.358Z,102264.56
2022-10-08T13:42:42.445Z,102262.69
2022-10-08T13:45:22.666Z,102267.05
2022-10-08T13:47:52.430Z,102271.02
2022-10-08T13:50:22.942Z,102272.48
2022-10-08T13:52:55.088Z,102280.03
2022-10-08T13:55:32.454Z,102277.67
2022-10-08T13:58:03.325Z,102280.78
2022-10-08T14:00:35.610Z,102278.53
2022-10-08T14:03:04.917Z,102286.54
2022-10-08T14:05:38.422Z,102291.02
2022-10-08T14:08:23.055Z,102286.49
2022-10-08T14:10:54.477Z,102288.42
2022-10-08T14:13:24.058Z,102290.38
2022-10-08T14:15:53.504Z,102291.63
2022-10-08T14:18:23.285Z,102289.11
2022-10-08T14:20:52.849Z,102284.63
2022-10-08T14:23:22.135Z,102289.72
2022-10-08T14:25:53.769Z,102293.25
2022-10-08T14:28:23.292Z,102294.77
2022-10-08T14:30:52.844Z,102301.22
2022-10-08T14:33:22.210Z,102305.39
2022-10-08T14:35:53.057Z,102294.20
2022-10-08T14:38:22.452Z,102302.61
2022-10-08T14:40:51.920Z,102298.73
2022-10-08T14:43:22.053Z,102295.89
2022-10-08T14:45:51.554Z,102298.43
2022-10-08T14:48:20.969Z,102295.92
2022-10-08T14:50:50.277Z,102297.89
2022-10-08T14:53:19.658Z,102295.17
2022-10-08T14:56:10.949Z,102292.56
2022-10-08T14:58:20.739Z,102296.92
2022-10-08T15:00:55.004Z,102296.30
2022-10-08T15:03:24.589Z,102298.48
2022-10-08T15:05:54.812Z,102305.52
2022-10-08T15:08:24.113Z,102300.41
2022-10-08T15:10:53.541Z,102302.62
2022-10-08T15:13:23.142Z,102310.25
2022-10-08T15:15:52.363Z,102304.87
2022-10-08T15:18:21.757Z,102311.45
2022-10-08T15:21:01.694Z,102311.36
2022-10-08T15:23:31.226Z,102318.34
2022-10-08T15:26:02.266Z,102320.21
2022-10-08T15:28:32.292Z,102318.95
2022-10-08T15:31:04.014Z,102313.80
2022-10-08T15:33:38.640Z,102308.52
2022-10-08T15:36:28.582Z,102310.83
2022-10-08T15:39:03.126Z,102314.52
2022-10-08T15:41:36.923Z,102312.59
2022-10-08T15:44:18.550Z,102317.67
2022-10-08T15:46:48.755Z,102316.04
2022-10-08T15:49:18.280Z,102321.79
2022-10-08T15:51:47.503Z,102323.58
2022-10-08T15:54:17.128Z,102323.02
2022-10-08T15:56:46.338Z,102325.59
2022-10-08T15:59:15.576Z,102329.45
2022-10-08T16:01:44.855Z,102330.92
2022-10-08T16:04:15.121Z,102327.82
2022-10-08T16:06:45.968Z,102336.47
2022-10-08T16:09:16.341Z,102332.70
2022-10-08T16:11:46.277Z,102341.32
2022-10-08T16:14:21.069Z,102348.11
2022-10-08T16:16:51.280Z,102350.97
2022-10-08T16:19:22.919Z,102356.81
2022-10-08T16:21:53.264Z,102353.11
2022-10-08T16:24:23.009Z,102345.37
2022-10-08T16:26:52.545Z,102347.32
2022-10-08T16:29:22.100Z,102354.93
2022-10-08T16:31:51.336Z,102352.13
2022-10-08T16:34:26.690Z,102349.02
2022-10-08T16:36:57.842Z,102356.73
2022-10-08T16:39:27.925Z,102366.38
2022-10-08T16:41:57.115Z,102365.29
2022-10-08T16:44:26.344Z,102363.28
2022-10-08T16:46:55.583Z,102361.11
2022-10-08T16:49:27.427Z,102364.24
2022-10-08T16:51:59.628Z,102368.15
2022-10-08T16:54:29.510Z,102373.37
2022-10-08T16:56:58.986Z,102370.52
2022-10-08T16:59:29.745Z,102372.41
2022-10-08T17:02:00.360Z,102375.03
2022-10-08T17:04:32.663Z,102390.30
2022-10-08T17:07:01.939Z,102392.13
2022-10-08T17:09:32.399Z,102388.79
2022-10-08T17:12:01.974Z,102392.02
2022-10-08T17:14:33.145Z,102397.83
2022-10-08T17:17:02.484Z,102407.81
2022-10-08T17:19:31.685Z,102405.23
2022-10-08T17:22:01.123Z,102404.51
2022-10-08T17:24:30.333Z,102405.28
2022-10-08T17:26:59.556Z,102416.53
2022-10-08T17:29:28.906Z,102410.84
2022-10-08T17:31:59.823Z,102416.65
2022-10-08T17:34:29.471Z,102420.94
2022-10-08T17:36:58.969Z,102422.28
2022-10-08T17:39:28.479Z,102431.36
2022-10-08T17:41:57.883Z,102434.27
2022-10-08T17:44:27.242Z,102442.11
2022-10-08T17:46:56.695Z,102436.06
2022-10-08T17:49:26.143Z,102442.64
2022-10-08T17:51:55.560Z,102443.91
2022-10-08T17:54:25.104Z,102446.67
2022-10-08T17:56:54.824Z,102448.34
2022-10-08T17:59:24.117Z,102449.08
2022-10-08T18:01:53.592Z,102451.80
2022-10-08T18:04:23.146Z,102449.48
2022-10-08T18:06:52.644Z,102448.91
2022-10-08T18:09:22.332Z,102453.66
2022-10-08T18:11:53.524Z,102451.79
2022-10-08T18:14:23.530Z,102453.37
2022-10-08T18:16:52.939Z,102456.38
2022-10-08T18:19:22.435Z,102462.58
2022-10-08T18:21:51.954Z,102463.48
2022-10-08T18:24:21.438Z,102465.13
2022-10-08T18:26:51.674Z,102462.80
2022-10-08T18:29:21.168Z,102469.38
2022-10-08T18:31:50.978Z,102464.66
2022-10-08T18:34:21.064Z,102473.92
2022-10-08T18:36:50.426Z,102478.84
2022-10-08T18:39:26.095Z,102480.55
2022-10-08T18:41:52.609Z,102479.86
2022-10-08T18:44:24.071Z,102485.77
2022-10-08T18:46:53.874Z,102486.65
2022-10-08T18:49:28.100Z,102485.50
2022-10-08T18:51:58.251Z,102485.01
2022-10-08T18:54:27.585Z,102487.30
2022-10-08T18:56:59.140Z,102490.58
2022-10-08T18:59:28.529Z,102493.98
2022-10-08T19:01:59.585Z,102492.64
2022-10-08T19:04:29.105Z,102492.12
2022-10-08T19:06:58.691Z,102492.47
2022-10-08T19:09:27.998Z,102498.72
2022-10-08T19:11:57.756Z,102495.94
2022-10-08T19:14:28.281Z,102500.31
2022-10-08T19:16:58.373Z,102504.70
2022-10-08T19:19:29.586Z,102504.82
2022-10-08T19:22:02.306Z,102510.61
2022-10-08T19:24:31.710Z,102508.60
2022-10-08T19:27:01.074Z,102509.77
2022-10-08T19:29:32.326Z,102512.45
2022-10-08T19:32:01.741Z,102520.19
2022-10-08T19:34:31.035Z,102513.17
2022-10-08T19:37:00.642Z,102518.24
2022-10-08T19:39:31.030Z,102515.67
2022-10-08T19:42:00.489Z,102514.07
2022-10-08T19:44:29.751Z,102514.41
2022-10-08T19:46:59.203Z,102520.20
2022-10-08T19:49:28.445Z,102518.25
2022-10-08T19:51:57.757Z,102523.92
2022-10-08T19:54:27.068Z,102519.89
2022-10-08T19:56:56.481Z,102520.83
2022-10-08T19:59:25.783Z,102521.53
2022-10-08T20:01:55.202Z,102523.33
2022-10-08T20:04:24.627Z,102528.40
2022-10-08T20:06:53.968Z,102524.89
2022-10-08T20:09:23.536Z,102525.45
2022-10-08T20:11:55.230Z,102530.52
2022-10-08T20:14:24.597Z,102529.89
2022-10-08T20:16:53.852Z,102528.77
2022-10-08T20:19:23.881Z,102538.08
2022-10-08T20:21:56.690Z,102532.91
2022-10-08T20:24:26.391Z,102530.21
2022-10-08T20:26:55.635Z,102530.88
2022-10-08T20:29:29.995Z,102531.89
2022-10-08T20:31:57.421Z,102531.17
2022-10-08T20:34:29.580Z,102531.48
2022-10-08T20:37:00.910Z,102529.20
2022-10-08T20:39:30.901Z,102534.27
2022-10-08T20:42:00.187Z,102530.55
2022-10-08T20:44:29.516Z,102529.53
2022-10-08T20:47:00.608Z,102521.91
2022-10-08T20:49:31.629Z,102524.48
2022-10-08T20:52:00.988Z,102527.38
2022-10-08T20:54:30.444Z,102531.31
2022-10-08T20:56:59.689Z,102535.78
2022-10-08T20:59:29.102Z,102539.17
2022-10-08T21:01:58.678Z,102532.80
2022-10-08T21:04:28.257Z,102542.18
2022-10-08T21:06:57.533Z,102542.00
2022-10-08T21:09:26.924Z,102548.72
2022-10-08T21:11:56.184Z,102542.19
2022-10-08T21:14:25.598Z,102543.66
2022-10-08T21:16:54.841Z,102544.89
2022-10-08T21:19:24.306Z,102538.58
2022-10-08T21:21:53.544Z,102546.75
2022-10-08T21:24:22.935Z,102550.17
2022-10-08T21:26:52.166Z,102546.02
2022-10-08T21:29:21.458Z,102542.92
2022-10-08T21:31:50.902Z,102547.47
2022-10-08T21:34:20.475Z,102546.64
2022-10-08T21:36:50.070Z,102548.11
2022-10-08T21:39:19.322Z,102542.02
2022-10-08T21:41:48.664Z,102553.88
2022-10-08T21:44:18.136Z,102543.64
2022-10-08T21:46:47.386Z,102541.91
2022-10-08T21:49:20.460Z,102539.92
2022-10-08T21:51:49.682Z,102537.77
2022-10-08T21:54:18.980Z,102540.27
2022-10-08T21:56:48.439Z,102540.78
2022-10-08T21:59:18.251Z,102533.53
2022-10-08T22:01:51.518Z,102539.72
2022-10-08T22:04:22.772Z,102535.81
2022-10-08T22:06:54.768Z,102535.59
2022-10-08T22:09:26.533Z,102530.30
2022-10-08T22:11:57.488Z,102529.04
2022-10-08T22:14:27.444Z,102534.09
2022-10-08T22:16:56.870Z,102533.80
2022-10-08T22:19:26.464Z,102538.12
2022-10-08T22:21:55.716Z,102539.16
2022-10-08T22:24:25.396Z,102530.98
2022-10-08T22:26:54.806Z,102544.38
2022-10-08T22:29:24.053Z,102537.47
2022-10-08T22:31:54.988Z,102533.78
2022-10-08T22:34:24.273Z,102525.92
2022-10-08T22:36:53.587Z,102532.92
2022-10-08T22:39:22.941Z,102532.84
2022-10-08T22:41:52.338Z,102531.50
2022-10-08T22:44:22.116Z,102535.00
2022-10-08T22:46:51.346Z,102527.77
2022-10-08T22:49:20.629Z,102530.02
2022-10-08T22:51:50.278Z,102523.02
2022-10-08T22:54:19.812Z,102521.27
2022-10-08T22:56:49.136Z,102524.34
2022-10-08T22:59:18.568Z,102523.39
2022-10-08T23:01:49.484Z,102514.53
2022-10-08T23:04:18.914Z,102516.00
2022-10-08T23:06:48.320Z,102519.72
2022-10-08T23:09:17.559Z,102519.81
2022-10-08T23:11:46.982Z,102518.04
2022-10-08T23:14:16.175Z,102514.95
2022-10-08T23:16:46.208Z,102517.12
2022-10-08T23:19:16.694Z,102518.67
2022-10-08T23:21:46.047Z,102519.80
2022-10-08T23:24:15.245Z,102520.01
2022-10-08T23:26:44.564Z,102521.64
2022-10-08T23:29:13.790Z,102518.01
2022-10-08T23:31:43.356Z,102516.58
2022-10-08T23:34:12.738Z,102518.81
2022-10-08T23:36:43.719Z,102523.87
2022-10-08T23:39:16.115Z,102519.03
2022-10-08T23:41:45.709Z,102514.05
2022-10-08T23:44:15.074Z,102520.02
2022-10-08T23:46:44.687Z,102517.12
2022-10-08T23:49:14.237Z,102517.33
2022-10-08T23:51:43.644Z,102511.56
2022-10-08T23:54:12.888Z,102513.39
2022-10-08T23:56:42.323Z,102513.08
2022-10-08T23:59:11.656Z,102513.50
